createdAt,value
2023-05-06T00:02:14.725Z,7.34
2023-05-06T00:07:21.256Z,7.26
2023-05-06T00:12:29.047Z,7.29
2023-05-06T00:17:36.091Z,7.23
2023-05-06T00:22:43.761Z,7.14
2023-05-06T00:27:52.297Z,7.02
2023-05-06T00:32:58.843Z,7.08
2023-05-06T00:38:13.657Z,6.89
2023-05-06T00:43:23.678Z,6.75
2023-05-06T00:48:30.688Z,6.76
2023-05-06T00:53:37.662Z,6.66
2023-05-06T00:58:48.106Z,6.66
2023-05-06T01:03:58.923Z,6.58
2023-05-06T01:09:16.340Z,6.52
2023-05-06T01:14:34.924Z,6.58
2023-05-06T01:19:47.745Z,6.39
2023-05-06T01:24:55.968Z,6.34
2023-05-06T01:30:02.918Z,6.32
2023-05-06T01:35:21.860Z,6.23
2023-05-06T01:40:31.794Z,6.24
2023-05-06T01:45:41.821Z,6.12
2023-05-06T01:50:48.464Z,6.10
2023-05-06T01:55:57.349Z,6.05
2023-05-06T02:01:04.135Z,5.96
2023-05-06T02:06:13.432Z,5.91
2023-05-06T02:11:22.327Z,5.87
2023-05-06T02:16:31.348Z,5.76
2023-05-06T02:21:38.617Z,5.64
2023-05-06T02:26:46.487Z,5.68
2023-05-06T02:31:53.048Z,5.62
2023-05-06T02:36:59.637Z,5.58
2023-05-06T02:42:07.898Z,5.49
2023-05-06T02:47:15.378Z,5.47
2023-05-06T02:52:23.948Z,5.48
2023-05-06T02:57:31.728Z,5.50
2023-05-06T03:02:38.111Z,5.52
2023-05-06T03:07:44.561Z,5.58
2023-05-06T03:12:53.143Z,5.53
2023-05-06T03:18:00.517Z,5.57
2023-05-06T03:23:09.107Z,5.56
2023-05-06T03:28:17.518Z,5.55
2023-05-06T03:33:27.305Z,5.58
2023-05-06T03:38:33.680Z,5.54
2023-05-06T03:43:45.417Z,5.48
2023-05-06T03:48:54.342Z,5.55
2023-05-06T03:54:01.232Z,5.45
2023-05-06T03:59:09.461Z,5.56
2023-05-06T04:04:16.055Z,5.64
2023-05-06T04:09:22.630Z,5.62
2023-05-06T04:14:33.201Z,5.64
2023-05-06T04:19:39.928Z,5.60
2023-05-06T04:24:48.752Z,5.64
2023-05-06T04:29:58.110Z,5.68
2023-05-06T04:35:05.609Z,5.68
2023-05-06T04:40:14.387Z,5.72
2023-05-06T04:45:26.474Z,5.73
2023-05-06T04:50:35.350Z,5.69
2023-05-06T04:55:42.310Z,5.74
2023-05-06T05:00:50.730Z,5.91
2023-05-06T05:05:58.204Z,5.99
2023-05-06T05:11:07.787Z,6.04
2023-05-06T05:16:16.078Z,6.16
2023-05-06T05:21:29.549Z,6.22
2023-05-06T05:26:36.718Z,6.30
2023-05-06T05:31:45.197Z,6.37
2023-05-06T05:36:54.509Z,6.45
2023-05-06T05:42:02.558Z,6.57
2023-05-06T05:47:11.149Z,6.68
2023-05-06T05:52:18.621Z,6.76
2023-05-06T05:57:25.487Z,6.80
2023-05-06T06:02:34.860Z,6.99
2023-05-06T06:07:41.673Z,7.05
2023-05-06T06:12:49.918Z,7.22
2023-05-06T06:18:02.501Z,7.28
2023-05-06T06:23:09.973Z,7.44
2023-05-06T06:28:16.594Z,7.52
2023-05-06T06:33:25.866Z,7.63
2023-05-06T06:38:32.679Z,7.77
2023-05-06T06:43:39.288Z,7.91
2023-05-06T06:49:07.825Z,7.98
2023-05-06T06:54:14.496Z,8.07
2023-05-06T06:59:21.149Z,8.23
2023-05-06T07:04:29.404Z,8.35
2023-05-06T07:09:38.321Z,8.38
2023-05-06T07:14:46.191Z,8.51
2023-05-06T07:19:56.976Z,8.67
2023-05-06T07:25:04.061Z,8.79
2023-05-06T07:30:12.537Z,8.91
2023-05-06T07:35:22.839Z,8.88
2023-05-06T07:40:29.644Z,8.95
2023-05-06T07:45:36.306Z,9.10
2023-05-06T07:50:47.002Z,9.15
2023-05-06T07:55:55.912Z,9.30
2023-05-06T08:01:03.719Z,9.29
2023-05-06T08:06:14.411Z,9.48
2023-05-06T08:11:21.225Z,9.55
2023-05-06T08:16:28.183Z,9.61
2023-05-06T08:21:36.804Z,9.72
2023-05-06T08:26:43.928Z,9.78
2023-05-06T08:31:51.017Z,9.86
2023-05-06T08:36:59.445Z,9.93
2023-05-06T08:42:07.446Z,10.01
2023-05-06T08:47:15.712Z,10.11
2023-05-06T08:52:24.853Z,10.21
2023-05-06T08:57:32.620Z,10.30
2023-05-06T09:02:43.042Z,10.39
2023-05-06T09:07:51.571Z,10.52
2023-05-06T09:12:59.789Z,10.60
2023-05-06T09:18:07.946Z,10.69
2023-05-06T09:23:18.886Z,10.78
2023-05-06T09:28:25.766Z,10.80
2023-05-06T09:33:32.258Z,10.76
2023-05-06T09:38:40.284Z,10.82
2023-05-06T09:43:49.485Z,10.82
2023-05-06T09:48:58.076Z,10.82
2023-05-06T09:54:07.305Z,10.84
2023-05-06T09:59:18.704Z,10.81
2023-05-06T10:04:31.442Z,10.82
2023-05-06T10:09:42.608Z,10.82
2023-05-06T10:14:50.788Z,10.78
2023-05-06T10:20:02.864Z,10.76
2023-05-06T10:25:23.191Z,10.70
2023-05-06T10:30:32.124Z,10.59
2023-05-06T10:35:51.138Z,10.33
2023-05-06T10:41:01.136Z,10.02
2023-05-06T10:46:10.076Z,9.76
2023-05-06T10:51:29.110Z,9.50
2023-05-06T10:56:39.123Z,9.34
2023-05-06T11:01:46.545Z,9.19
2023-05-06T11:06:55.596Z,9.07
2023-05-06T11:12:06.112Z,8.95
2023-05-06T11:17:33.291Z,8.94
2023-05-06T11:22:43.963Z,8.96
2023-05-06T11:27:51.975Z,8.91
2023-05-06T11:33:05.227Z,8.79
2023-05-06T11:38:13.818Z,8.76
2023-05-06T11:43:22.042Z,8.68
2023-05-06T11:48:28.529Z,8.68
2023-05-06T11:53:35.203Z,8.63
2023-05-06T11:58:43.243Z,8.63
2023-05-06T12:03:49.861Z,8.63
2023-05-06T12:08:56.841Z,8.67
2023-05-06T12:14:08.070Z,8.70
2023-05-06T12:19:17.889Z,8.74
2023-05-06T12:24:30.964Z,8.72
2023-05-06T12:29:39.452Z,8.68
2023-05-06T12:34:46.443Z,8.63
2023-05-06T12:39:53.074Z,8.62
2023-05-06T12:45:14.649Z,8.60
2023-05-06T12:50:34.829Z,8.45
2023-05-06T12:55:43.301Z,8.49
2023-05-06T13:00:51.506Z,8.45
2023-05-06T13:05:58.656Z,8.35
2023-05-06T13:11:05.566Z,8.35
2023-05-06T13:16:14.294Z,8.35
2023-05-06T13:21:21.618Z,8.35
2023-05-06T13:26:29.372Z,8.27
2023-05-06T13:31:38.307Z,8.17
2023-05-06T13:36:45.479Z,8.14
2023-05-06T13:41:52.991Z,8.13
2023-05-06T13:47:02.762Z,8.07
2023-05-06T13:52:11.473Z,7.97
2023-05-06T13:57:19.481Z,7.86
2023-05-06T14:02:28.208Z,7.79
2023-05-06T14:07:35.519Z,7.74
2023-05-06T14:12:43.011Z,7.62
2023-05-06T14:17:53.736Z,7.45
2023-05-06T14:23:00.987Z,7.34
2023-05-06T14:28:08.196Z,7.27
2023-05-06T14:33:17.719Z,7.28
2023-05-06T14:38:24.825Z,7.20
2023-05-06T14:43:31.758Z,7.21
2023-05-06T14:48:39.941Z,7.13
2023-05-06T14:53:48.287Z,7.15
2023-05-06T14:58:54.919Z,7.11
2023-05-06T15:04:03.812Z,7.10
2023-05-06T15:09:11.235Z,7.11
2023-05-06T15:14:18.657Z,7.07
2023-05-06T15:19:28.113Z,7.03
2023-05-06T15:24:36.254Z,7.02
2023-05-06T15:29:43.503Z,7.08
2023-05-06T15:34:52.012Z,7.17
2023-05-06T15:39:58.904Z,7.21
2023-05-06T15:45:06.093Z,7.18
2023-05-06T15:50:29.035Z,7.18
2023-05-06T15:55:46.752Z,7.24
2023-05-06T16:01:01.833Z,7.13
2023-05-06T16:06:13.843Z,7.10
2023-05-06T16:11:22.063Z,7.07
2023-05-06T16:16:30.244Z,7.00
2023-05-06T16:21:38.879Z,7.00
2023-05-06T16:26:46.186Z,6.96
2023-05-06T16:31:52.995Z,6.95
2023-05-06T16:37:02.171Z,6.97
2023-05-06T16:42:09.954Z,6.95
2023-05-06T16:47:24.017Z,6.99
2023-05-06T16:52:33.306Z,6.95
2023-05-06T16:57:40.352Z,6.83
2023-05-06T17:02:48.285Z,6.83
2023-05-06T17:07:57.950Z,6.82
2023-05-06T17:13:06.837Z,6.83
2023-05-06T17:18:14.834Z,6.85
2023-05-06T17:23:23.624Z,6.81
2023-05-06T17:28:30.897Z,6.83
2023-05-06T17:33:38.278Z,6.75
2023-05-06T17:38:47.268Z,6.82
2023-05-06T17:43:54.121Z,6.78
2023-05-06T17:49:01.054Z,6.82
2023-05-06T17:54:09.692Z,6.72
2023-05-06T17:59:16.703Z,6.76
2023-05-06T18:04:24.021Z,6.69
2023-05-06T18:09:35.151Z,6.69
2023-05-06T18:14:42.762Z,6.74
2023-05-06T18:19:51.329Z,6.75
2023-05-06T18:25:00.488Z,6.66
2023-05-06T18:30:10.310Z,6.68
2023-05-06T18:35:18.590Z,6.67
2023-05-06T18:40:28.392Z,6.61
2023-05-06T18:45:36.222Z,6.63
2023-05-06T18:50:45.672Z,6.58
2023-05-06T18:55:54.657Z,6.54
2023-05-06T19:01:03.728Z,6.54
2023-05-06T19:06:12.227Z,6.49
2023-05-06T19:11:21.756Z,6.47
2023-05-06T19:16:28.938Z,6.40
2023-05-06T19:21:38.673Z,6.44
2023-05-06T19:26:47.764Z,6.38
2023-05-06T19:31:56.070Z,6.39
2023-05-06T19:37:03.835Z,6.38
2023-05-06T19:42:13.368Z,6.42
2023-05-06T19:47:21.130Z,6.40
2023-05-06T19:52:31.159Z,6.37
2023-05-06T19:57:41.672Z,6.39
2023-05-06T20:02:51.182Z,6.36
2023-05-06T20:08:00.330Z,6.37
2023-05-06T20:13:13.704Z,6.33
2023-05-06T20:18:25.134Z,6.34
2023-05-06T20:23:35.695Z,6.34
2023-05-06T20:28:45.563Z,6.28
2023-05-06T20:33:53.187Z,6.19
2023-05-06T20:39:01.321Z,6.16
2023-05-06T20:44:12.015Z,6.20
2023-05-06T20:49:21.691Z,6.17
2023-05-06T20:54:30.184Z,6.25
2023-05-06T20:59:39.385Z,6.18
2023-05-06T21:04:46.584Z,6.18
2023-05-06T21:09:53.668Z,6.09
2023-05-06T21:15:03.190Z,6.13
2023-05-06T21:20:15.094Z,6.15
2023-05-06T21:25:22.893Z,6.05
2023-05-06T21:30:31.730Z,6.09
2023-05-06T21:35:39.202Z,6.12
2023-05-06T21:40:48.045Z,6.12
2023-05-06T21:45:56.747Z,6.08
2023-05-06T21:51:06.301Z,6.08
2023-05-06T21:56:13.714Z,5.99
2023-05-06T22:01:22.294Z,6.00
2023-05-06T22:06:29.877Z,6.06
2023-05-06T22:11:38.944Z,6.06
2023-05-06T22:16:47.747Z,6.05
2023-05-06T22:21:55.088Z,5.98
2023-05-06T22:27:02.222Z,6.03
2023-05-06T22:32:10.487Z,5.94
2023-05-06T22:37:17.971Z,5.96
2023-05-06T22:42:26.017Z,5.95
2023-05-06T22:47:35.951Z,5.95
2023-05-06T22:52:42.864Z,5.89
2023-05-06T22:57:50.438Z,5.94
2023-05-06T23:02:59.013Z,5.88
2023-05-06T23:08:05.929Z,5.88
2023-05-06T23:13:12.881Z,5.83
2023-05-06T23:18:21.441Z,5.90
2023-05-06T23:23:29.015Z,5.79
2023-05-06T23:28:35.985Z,5.84
2023-05-06T23:33:44.205Z,5.82
2023-05-06T23:38:50.893Z,5.79
2023-05-06T23:43:57.626Z,5.74
2023-05-06T23:49:06.015Z,5.73
2023-05-06T23:54:12.938Z,5.80
2023-05-06T23:59:19.522Z,5.76
